createdAt,value
2022-10-26T00:04:58.893Z,9.49
2022-10-26T00:10:22.140Z,9.48
2022-10-26T00:15:47.994Z,9.47
2022-10-26T00:21:12.514Z,9.49
2022-10-26T00:26:35.194Z,9.48
2022-10-26T00:31:58.402Z,9.48
2022-10-26T00:37:20.655Z,9.45
2022-10-26T00:42:42.805Z,9.42
2022-10-26T00:48:12.916Z,9.40
2022-10-26T00:53:36.357Z,9.37
2022-10-26T00:58:59.964Z,9.37
2022-10-26T01:04:23.787Z,9.33
2022-10-26T01:09:46.711Z,9.32
2022-10-26T01:15:10.055Z,9.30
2022-10-26T01:21:00.449Z,9.26
2022-10-26T01:26:33.763Z,9.25
2022-10-26T01:32:13.430Z,9.39
2022-10-26T01:37:42.933Z,9.28
2022-10-26T01:43:09.829Z,9.29
2022-10-26T01:48:35.633Z,9.32
2022-10-26T01:54:00.306Z,9.33
2022-10-26T01:59:30.004Z,9.32
2022-10-26T02:05:19.463Z,9.28
2022-10-26T02:11:05.939Z,9.25
2022-10-26T02:16:32.629Z,9.23
2022-10-26T02:21:59.528Z,9.21
2022-10-26T02:27:34.988Z,9.20
2022-10-26T02:33:01.548Z,9.15
2022-10-26T02:38:26.235Z,9.18
2022-10-26T02:43:52.505Z,9.10
2022-10-26T02:49:15.125Z,9.07
2022-10-26T02:54:47.925Z,9.05
2022-10-26T03:00:13.761Z,9.03
2022-10-26T03:05:42.499Z,9.03
2022-10-26T03:11:04.717Z,9.00
2022-10-26T03:16:27.077Z,8.96
2022-10-26T03:21:49.256Z,8.92
2022-10-26T03:27:11.404Z,8.95
2022-10-26T03:32:33.568Z,8.93
2022-10-26T03:37:55.824Z,8.90
2022-10-26T03:43:17.971Z,8.92
2022-10-26T03:48:40.150Z,8.89
2022-10-26T03:54:02.295Z,8.88
2022-10-26T03:59:24.481Z,8.87
2022-10-26T04:04:46.654Z,8.85
2022-10-26T04:10:08.838Z,8.87
2022-10-26T04:15:32.895Z,8.85
2022-10-26T04:20:55.200Z,8.78
2022-10-26T04:26:18.220Z,8.73
2022-10-26T04:37:03.839Z,8.73
2022-10-26T04:42:26.009Z,8.73
2022-10-26T04:47:48.226Z,8.72
2022-10-26T04:53:11.053Z,8.74
2022-10-26T04:58:33.963Z,8.74
2022-10-26T05:03:57.074Z,8.74
2022-10-26T05:09:19.306Z,8.72
2022-10-26T05:14:41.471Z,8.70
2022-10-26T05:20:05.279Z,8.65
2022-10-26T05:25:27.613Z,8.68
2022-10-26T05:30:51.318Z,8.64
2022-10-26T05:36:14.437Z,8.67
2022-10-26T05:41:37.347Z,8.64
2022-10-26T05:47:00.366Z,8.54
2022-10-26T05:52:22.600Z,8.52
2022-10-26T05:57:45.750Z,8.49
2022-10-26T06:03:28.010Z,8.52
2022-10-26T06:08:50.918Z,8.51
2022-10-26T06:14:13.482Z,8.56
2022-10-26T06:19:58.671Z,8.56
2022-10-26T06:25:25.919Z,8.58
2022-10-26T06:30:48.705Z,8.52
2022-10-26T06:36:30.940Z,8.48
2022-10-26T06:41:55.009Z,8.44
2022-10-26T06:47:29.741Z,8.50
2022-10-26T06:53:02.793Z,8.50
2022-10-26T06:58:29.410Z,8.47
2022-10-26T07:03:51.656Z,8.40
2022-10-26T07:09:13.806Z,8.37
2022-10-26T07:14:36.384Z,8.26
2022-10-26T07:19:58.535Z,8.18
2022-10-26T07:25:21.734Z,8.24
2022-10-26T07:30:45.507Z,8.08
2022-10-26T07:36:09.076Z,8.00
2022-10-26T07:41:31.526Z,8.03
2022-10-26T07:46:53.815Z,8.03
2022-10-26T07:52:16.534Z,8.14
2022-10-26T07:57:39.198Z,8.27
2022-10-26T08:03:02.817Z,8.23
2022-10-26T08:08:25.054Z,8.21
2022-10-26T08:13:47.261Z,8.18
2022-10-26T08:19:10.444Z,8.32
2022-10-26T08:24:33.091Z,8.38
2022-10-26T08:29:55.822Z,8.48
2022-10-26T08:35:19.108Z,8.50
2022-10-26T08:40:48.504Z,8.46
2022-10-26T08:46:15.575Z,8.42
2022-10-26T08:51:42.142Z,8.57
2022-10-26T08:57:07.560Z,8.64
2022-10-26T09:02:31.428Z,8.56
2022-10-26T09:08:13.040Z,8.69
2022-10-26T09:13:49.050Z,8.79
2022-10-26T09:19:35.798Z,8.86
2022-10-26T09:25:07.741Z,8.93
2022-10-26T09:30:37.352Z,9.14
2022-10-26T09:36:13.153Z,9.12
2022-10-26T09:42:06.145Z,9.25
2022-10-26T09:47:39.313Z,9.35
2022-10-26T09:53:03.221Z,9.60
2022-10-26T09:58:30.865Z,9.49
2022-10-26T10:03:54.495Z,9.67
2022-10-26T10:09:37.153Z,9.70
2022-10-26T10:15:11.467Z,9.89
2022-10-26T10:20:38.535Z,9.96
2022-10-26T10:26:05.782Z,10.12
2022-10-26T10:31:46.078Z,10.18
2022-10-26T10:37:08.763Z,10.18
2022-10-26T10:42:41.120Z,10.35
2022-10-26T10:48:14.685Z,10.31
2022-10-26T10:53:44.942Z,10.57
2022-10-26T10:59:24.371Z,10.65
2022-10-26T11:05:30.964Z,10.62
2022-10-26T11:11:13.377Z,10.59
2022-10-26T11:16:46.772Z,10.56
2022-10-26T11:22:27.270Z,10.69
2022-10-26T11:28:00.636Z,10.62
2022-10-26T11:33:39.689Z,10.81
2022-10-26T11:39:08.706Z,10.86
2022-10-26T11:44:54.236Z,10.86
2022-10-26T11:50:33.229Z,10.76
2022-10-26T11:56:04.799Z,10.78
2022-10-26T12:01:30.157Z,10.94
2022-10-26T12:06:53.562Z,11.01
2022-10-26T12:12:31.632Z,11.13
2022-10-26T12:18:54.902Z,11.35
2022-10-26T12:24:39.362Z,11.35
2022-10-26T12:30:22.459Z,11.51
2022-10-26T12:35:56.717Z,11.71
2022-10-26T12:41:37.441Z,11.68
2022-10-26T12:47:00.103Z,11.74
2022-10-26T12:52:27.753Z,11.71
2022-10-26T13:04:28.132Z,11.82
2022-10-26T13:09:55.709Z,11.72
2022-10-26T13:15:40.246Z,11.87
2022-10-26T13:21:24.475Z,11.85
2022-10-26T13:27:08.387Z,11.75
2022-10-26T13:32:33.331Z,11.72
2022-10-26T13:37:59.509Z,11.77
2022-10-26T13:43:28.691Z,11.98
2022-10-26T13:49:00.215Z,12.03
2022-10-26T13:54:46.532Z,12.03
2022-10-26T14:00:22.153Z,11.99
2022-10-26T14:05:46.368Z,11.87
2022-10-26T14:11:17.851Z,11.86
2022-10-26T14:16:44.562Z,11.79
2022-10-26T14:22:07.638Z,11.91
2022-10-26T14:27:34.791Z,12.10
2022-10-26T14:32:57.949Z,12.14
2022-10-26T14:38:27.770Z,12.39
2022-10-26T14:43:51.312Z,12.56
2022-10-26T14:49:19.155Z,12.30
2022-10-26T14:54:57.970Z,12.14
2022-10-26T15:00:30.783Z,11.96
2022-10-26T15:05:53.481Z,11.86
2022-10-26T15:11:22.027Z,11.80
2022-10-26T15:16:48.463Z,11.76
2022-10-26T15:22:11.617Z,11.66
2022-10-26T15:27:35.704Z,11.39
2022-10-26T15:32:59.313Z,11.16
2022-10-26T15:38:23.079Z,10.95
2022-10-26T15:43:45.332Z,10.66
2022-10-26T15:49:11.479Z,10.31
2022-10-26T15:54:34.152Z,10.04
2022-10-26T15:59:56.489Z,9.75
2022-10-26T16:05:20.015Z,9.45
2022-10-26T16:10:43.891Z,9.24
2022-10-26T16:16:06.438Z,9.13
2022-10-26T16:21:33.042Z,8.98
2022-10-26T16:26:55.355Z,8.82
2022-10-26T16:32:17.604Z,8.57
2022-10-26T16:37:41.354Z,8.51
2022-10-26T16:43:04.081Z,8.33
2022-10-26T16:48:27.138Z,8.29
2022-10-26T16:53:49.876Z,8.19
2022-10-26T16:59:12.563Z,8.31
2022-10-26T17:04:35.265Z,8.23
2022-10-26T17:09:57.521Z,8.21
2022-10-26T17:15:20.591Z,8.01
2022-10-26T17:26:11.532Z,7.92
2022-10-26T17:31:35.659Z,7.93
2022-10-26T17:36:57.806Z,7.80
2022-10-26T17:42:20.047Z,7.68
2022-10-26T17:47:42.575Z,7.58
2022-10-26T17:53:06.299Z,7.52
2022-10-26T17:58:29.533Z,7.49
2022-10-26T18:03:52.190Z,7.57
2022-10-26T18:09:20.450Z,7.64
2022-10-26T18:14:43.049Z,7.58
2022-10-26T18:20:05.516Z,7.55
2022-10-26T18:25:28.216Z,7.69
2022-10-26T18:30:50.366Z,7.58
2022-10-26T18:36:18.311Z,7.71
2022-10-26T18:41:41.066Z,7.85
2022-10-26T18:47:03.366Z,7.81
2022-10-26T18:52:28.312Z,7.69
2022-10-26T18:57:53.571Z,7.61
2022-10-26T19:03:17.413Z,7.80
2022-10-26T19:08:40.279Z,7.63
2022-10-26T19:14:03.218Z,7.51
2022-10-26T19:19:26.995Z,7.45
2022-10-26T19:24:49.634Z,7.49
2022-10-26T19:30:12.001Z,7.56
2022-10-26T19:41:06.838Z,7.55
2022-10-26T19:46:35.768Z,7.37
2022-10-26T19:51:58.322Z,7.20
2022-10-26T19:57:20.512Z,7.42
2022-10-26T20:02:42.735Z,7.43
2022-10-26T20:08:05.825Z,7.54
2022-10-26T20:13:29.787Z,7.66
2022-10-26T20:18:52.832Z,7.53
2022-10-26T20:24:25.221Z,7.46
2022-10-26T20:29:47.380Z,7.36
2022-10-26T20:35:10.172Z,7.46
2022-10-26T20:40:33.797Z,7.45
2022-10-26T20:51:56.794Z,7.48
2022-10-26T20:57:09.043Z,7.32
2022-10-26T21:02:31.249Z,7.28
2022-10-26T21:07:53.422Z,7.34
2022-10-26T21:13:15.643Z,7.42
2022-10-26T21:18:38.581Z,7.40
2022-10-26T21:24:00.742Z,7.43
2022-10-26T21:29:23.610Z,7.46
2022-10-26T21:34:46.312Z,7.49
2022-10-26T21:40:08.504Z,7.52
2022-10-26T21:45:31.351Z,7.53
2022-10-26T21:50:54.276Z,7.48
2022-10-26T21:56:23.280Z,7.39
2022-10-26T22:01:45.635Z,7.37
2022-10-26T22:07:08.078Z,7.35
2022-10-26T22:12:30.302Z,7.29
2022-10-26T22:17:54.237Z,7.24
2022-10-26T22:23:16.469Z,7.15
2022-10-26T22:28:42.648Z,7.09
2022-10-26T22:34:07.982Z,7.07
2022-10-26T22:39:30.865Z,7.10
2022-10-26T22:44:53.202Z,7.07
2022-10-26T22:50:15.953Z,6.97
2022-10-26T22:55:38.129Z,6.94
2022-10-26T23:01:00.323Z,6.94
2022-10-26T23:06:35.178Z,7.04
2022-10-26T23:11:57.739Z,6.86
2022-10-26T23:17:19.862Z,6.82
2022-10-26T23:22:42.022Z,6.82
2022-10-26T23:28:04.158Z,6.78
2022-10-26T23:33:26.665Z,6.78
2022-10-26T23:38:48.869Z,6.75
2022-10-26T23:44:11.221Z,6.78
2022-10-26T23:49:33.840Z,6.77
2022-10-26T23:54:56.002Z,6.70
